createdAt,value
2023-03-11T00:01:52.139Z,137.60
2023-03-11T00:04:21.492Z,120.03
2023-03-11T00:06:59.054Z,107.57
2023-03-11T00:09:32.156Z,115.40
2023-03-11T00:13:45.053Z,100.18
2023-03-11T00:16:49.440Z,94.95
2023-03-11T00:19:25.731Z,95.60
2023-03-11T00:21:55.817Z,94.88
2023-03-11T00:24:57.303Z,89.60
2023-03-11T00:28:01.261Z,93.85
2023-03-11T00:30:33.291Z,89.78
2023-03-11T00:33:10.080Z,86.93
2023-03-11T00:35:44.879Z,88.40
2023-03-11T00:38:18.768Z,86.68
2023-03-11T00:40:48.011Z,93.97
2023-03-11T00:43:17.817Z,88.28
2023-03-11T00:45:47.729Z,89.40
2023-03-11T00:48:18.774Z,97.28
2023-03-11T00:52:02.193Z,94.00
2023-03-11T00:54:41.841Z,89.00
2023-03-11T00:57:10.539Z,88.63
2023-03-11T01:00:18.522Z,86.93
2023-03-11T01:02:47.819Z,106.25
2023-03-11T01:05:20.566Z,94.18
2023-03-11T01:07:51.655Z,96.88
2023-03-11T01:10:54.111Z,91.60
2023-03-11T01:13:22.814Z,96.60
2023-03-11T01:15:51.181Z,93.43
2023-03-11T01:18:23.011Z,88.88
2023-03-11T01:20:55.097Z,91.63
2023-03-11T01:23:26.954Z,84.72
2023-03-11T01:25:55.828Z,79.82
2023-03-11T01:28:24.706Z,89.05
2023-03-11T01:30:52.793Z,88.65
2023-03-11T01:40:01.379Z,85.70
2023-03-11T01:43:41.819Z,85.03
2023-03-11T01:48:21.601Z,89.95
2023-03-11T01:52:29.329Z,84.43
2023-03-11T01:54:59.323Z,80.63
2023-03-11T01:58:46.397Z,83.97
2023-03-11T02:01:17.014Z,90.63
2023-03-11T02:03:46.981Z,103.70
2023-03-11T02:06:19.477Z,109.35
2023-03-11T02:08:55.955Z,110.63
2023-03-11T02:11:27.825Z,103.35
2023-03-11T02:13:59.269Z,117.60
2023-03-11T02:16:34.731Z,118.45
2023-03-11T02:19:31.051Z,127.82
2023-03-11T02:21:59.530Z,124.68
2023-03-11T02:24:50.654Z,120.38
2023-03-11T02:27:19.743Z,141.60
2023-03-11T02:29:50.981Z,144.43
2023-03-11T02:32:27.442Z,131.57
2023-03-11T02:35:16.366Z,150.25
2023-03-11T02:37:57.563Z,198.88
2023-03-11T02:41:32.311Z,139.60
2023-03-11T02:45:36.629Z,168.10
2023-03-11T02:48:16.799Z,299.90
2023-03-11T02:50:55.920Z,104.65
2023-03-11T02:53:27.483Z,244.40
2023-03-11T03:01:11.954Z,108.30
2023-03-11T03:03:45.236Z,107.05
2023-03-11T03:06:15.577Z,110.38
2023-03-11T03:08:55.424Z,111.05
2023-03-11T03:11:33.113Z,125.70
2023-03-11T03:14:35.345Z,118.05
2023-03-11T03:17:38.151Z,119.03
2023-03-11T03:20:15.434Z,126.07
2023-03-11T03:22:51.665Z,121.50
2023-03-11T03:25:27.144Z,119.15
2023-03-11T03:28:03.093Z,117.63
2023-03-11T03:30:34.982Z,119.03
2023-03-11T03:33:04.681Z,124.00
2023-03-11T03:35:34.075Z,123.93
2023-03-11T03:38:16.094Z,137.77
2023-03-11T03:40:49.219Z,121.65
2023-03-11T03:43:22.489Z,132.85
2023-03-11T03:45:59.035Z,121.70
2023-03-11T03:48:31.278Z,128.73
2023-03-11T03:51:08.551Z,124.25
2023-03-11T03:53:41.647Z,127.32
2023-03-11T03:56:24.667Z,138.98
2023-03-11T03:58:54.899Z,146.95
2023-03-11T04:03:12.437Z,138.77
2023-03-11T04:05:54.232Z,154.32
2023-03-11T04:08:34.182Z,151.00
2023-03-11T04:11:35.707Z,158.85
2023-03-11T04:15:12.851Z,140.77
2023-03-11T04:18:51.015Z,136.93
2023-03-11T04:21:52.695Z,137.07
2023-03-11T04:24:25.699Z,131.88
2023-03-11T04:26:54.874Z,125.38
2023-03-11T04:29:25.317Z,125.65
2023-03-11T04:31:56.677Z,176.27
2023-03-11T04:34:31.447Z,181.90
2023-03-11T04:38:06.524Z,178.15
2023-03-11T04:40:44.235Z,161.75
2023-03-11T04:43:47.595Z,127.07
2023-03-11T04:46:40.698Z,109.55
2023-03-11T04:49:10.496Z,87.28
2023-03-11T04:51:43.061Z,87.40
2023-03-11T04:54:14.709Z,86.43
2023-03-11T04:56:44.099Z,75.18
2023-03-11T04:59:14.130Z,64.85
2023-03-11T05:01:47.177Z,67.53
2023-03-11T05:04:15.407Z,71.93
2023-03-11T05:06:53.906Z,61.55
2023-03-11T05:10:56.624Z,60.88
2023-03-11T05:13:36.174Z,62.95
2023-03-11T05:16:06.998Z,65.03
2023-03-11T05:18:36.977Z,75.75
2023-03-11T05:21:10.841Z,95.47
2023-03-11T05:23:45.395Z,94.45
2023-03-11T05:26:16.682Z,97.97
2023-03-11T05:28:47.027Z,86.10
2023-03-11T05:31:17.049Z,79.35
2023-03-11T05:33:54.094Z,67.25
2023-03-11T05:38:07.547Z,61.33
2023-03-11T05:40:39.039Z,59.38
2023-03-11T05:43:42.993Z,49.17
2023-03-11T05:46:21.297Z,54.20
2023-03-11T05:48:50.030Z,47.67
2023-03-11T05:51:22.907Z,44.88
2023-03-11T05:53:51.759Z,41.83
2023-03-11T05:56:31.001Z,38.67
2023-03-11T05:59:00.282Z,41.75
2023-03-11T06:01:40.657Z,36.58
2023-03-11T06:04:11.421Z,34.88
2023-03-11T06:06:41.717Z,37.65
2023-03-11T06:09:15.528Z,37.28
2023-03-11T06:11:53.407Z,42.47
2023-03-11T06:14:24.786Z,42.40
2023-03-11T06:16:52.963Z,43.60
2023-03-11T06:20:36.771Z,41.72
2023-03-11T06:23:05.575Z,41.13
2023-03-11T06:25:37.287Z,42.15
2023-03-11T06:28:09.156Z,50.72
2023-03-11T06:30:40.246Z,47.25
2023-03-11T06:33:19.676Z,43.58
2023-03-11T06:35:59.616Z,41.05
2023-03-11T06:38:32.912Z,48.53
2023-03-11T06:41:12.351Z,43.03
2023-03-11T06:43:49.305Z,50.17
2023-03-11T06:46:26.612Z,54.22
2023-03-11T06:49:05.188Z,48.25
2023-03-11T06:53:25.785Z,47.17
2023-03-11T07:01:30.166Z,46.83
2023-03-11T07:04:01.579Z,43.55
2023-03-11T07:07:14.786Z,43.88
2023-03-11T07:09:43.346Z,42.22
2023-03-11T07:12:25.579Z,41.30
2023-03-11T07:14:58.692Z,43.47
2023-03-11T07:17:34.404Z,41.47
2023-03-11T07:20:04.894Z,44.22
2023-03-11T07:22:37.562Z,45.63
2023-03-11T07:25:07.668Z,45.65
2023-03-11T07:27:37.218Z,48.88
2023-03-11T07:30:12.100Z,41.10
2023-03-11T07:32:42.943Z,43.20
2023-03-11T07:36:17.273Z,39.53
2023-03-11T07:40:00.267Z,37.30
2023-03-11T07:42:36.840Z,34.35
2023-03-11T07:45:17.746Z,36.72
2023-03-11T07:47:46.200Z,26.67
2023-03-11T07:50:28.024Z,28.38
2023-03-11T07:52:56.308Z,29.20
2023-03-11T07:55:32.780Z,27.02
2023-03-11T07:58:02.294Z,31.75
2023-03-11T08:00:32.282Z,29.73
2023-03-11T08:03:02.595Z,25.83
2023-03-11T08:05:38.795Z,31.10
2023-03-11T08:08:18.350Z,32.17
2023-03-11T08:12:42.145Z,32.40
2023-03-11T08:15:46.545Z,45.75
2023-03-11T08:18:53.503Z,53.90
2023-03-11T08:21:26.421Z,34.72
2023-03-11T08:24:00.485Z,32.05
2023-03-11T08:27:01.083Z,27.05
2023-03-11T08:29:32.264Z,25.25
2023-03-11T08:32:02.373Z,22.60
2023-03-11T08:34:35.517Z,23.65
2023-03-11T08:37:10.441Z,21.52
2023-03-11T08:41:19.309Z,20.35
2023-03-11T08:54:03.801Z,18.02
2023-03-11T08:57:06.054Z,17.05
2023-03-11T09:00:13.165Z,17.55
2023-03-11T09:02:43.751Z,21.00
2023-03-11T09:05:14.695Z,18.73
2023-03-11T09:07:54.558Z,18.35
2023-03-11T09:10:23.067Z,16.58
2023-03-11T09:12:58.520Z,18.95
2023-03-11T09:15:33.958Z,24.80
2023-03-11T09:18:28.836Z,45.53
2023-03-11T09:21:01.142Z,50.10
2023-03-11T09:23:38.198Z,60.85
2023-03-11T09:26:06.268Z,53.40
2023-03-11T09:28:35.307Z,57.28
2023-03-11T09:31:03.622Z,50.80
2023-03-11T09:34:06.233Z,52.25
2023-03-11T09:36:36.394Z,46.80
2023-03-11T09:40:21.715Z,37.80
2023-03-11T09:43:09.707Z,32.20
2023-03-11T09:46:01.897Z,29.15
2023-03-11T09:52:07.380Z,20.80
2023-03-11T09:54:39.867Z,27.48
2023-03-11T09:57:32.622Z,24.10
2023-03-11T10:00:02.423Z,25.30
2023-03-11T10:03:33.773Z,26.35
2023-03-11T10:06:07.126Z,28.38
2023-03-11T10:09:00.331Z,26.00
2023-03-11T10:11:47.198Z,36.22
2023-03-11T10:14:40.562Z,32.72
2023-03-11T10:17:28.690Z,30.50
2023-03-11T10:20:16.036Z,35.05
2023-03-11T10:22:56.328Z,32.20
2023-03-11T10:25:40.711Z,34.00
2023-03-11T10:28:16.175Z,32.15
2023-03-11T10:30:58.139Z,26.83
2023-03-11T10:34:32.909Z,30.92
2023-03-11T10:37:06.332Z,28.33
2023-03-11T10:51:23.149Z,36.75
2023-03-11T10:53:55.192Z,33.72
2023-03-11T11:02:12.999Z,41.85
2023-03-11T11:04:41.259Z,42.70
2023-03-11T11:12:14.992Z,40.80
2023-03-11T11:15:16.628Z,44.55
2023-03-11T11:17:58.004Z,41.10
2023-03-11T11:20:35.551Z,42.38
2023-03-11T11:23:24.160Z,46.20
2023-03-11T11:26:05.952Z,48.40
2023-03-11T11:28:35.068Z,44.00
2023-03-11T11:31:06.582Z,36.85
2023-03-11T11:33:55.881Z,35.50
2023-03-11T11:36:30.205Z,29.40
2023-03-11T11:38:59.812Z,26.60
2023-03-11T11:41:27.998Z,24.00
2023-03-11T11:44:03.317Z,23.10
2023-03-11T11:47:06.267Z,21.67
2023-03-11T11:49:50.941Z,22.35
2023-03-11T11:52:33.477Z,22.88
2023-03-11T11:55:03.622Z,19.05
2023-03-11T11:57:32.023Z,20.17
2023-03-11T12:00:06.031Z,20.75
2023-03-11T12:03:10.728Z,18.55
2023-03-11T12:06:17.263Z,21.27
2023-03-11T12:09:00.756Z,21.30
2023-03-11T12:11:49.952Z,21.05
2023-03-11T12:14:56.338Z,24.42
2023-03-11T12:17:31.230Z,25.25
2023-03-11T12:20:36.716Z,27.02
2023-03-11T12:23:20.979Z,21.23
2023-03-11T12:26:05.146Z,25.63
2023-03-11T12:28:38.653Z,21.08
2023-03-11T12:31:10.123Z,20.02
2023-03-11T12:33:46.776Z,21.45
2023-03-11T12:36:44.426Z,21.63
2023-03-11T12:39:45.157Z,23.67
2023-03-11T12:42:18.045Z,21.30
2023-03-11T12:44:47.205Z,23.42
2023-03-11T12:47:29.133Z,27.55
2023-03-11T12:50:35.657Z,28.30
2023-03-11T12:53:04.137Z,29.95
2023-03-11T12:55:45.313Z,31.48
2023-03-11T12:58:29.094Z,30.27
2023-03-11T13:01:09.775Z,29.42
2023-03-11T13:04:12.478Z,26.45
2023-03-11T13:07:17.206Z,27.60
2023-03-11T13:10:08.822Z,29.88
2023-03-11T13:12:59.132Z,32.38
2023-03-11T13:15:31.128Z,30.83
2023-03-11T13:18:27.414Z,29.55
2023-03-11T13:21:06.984Z,32.33
2023-03-11T13:23:37.893Z,30.05
2023-03-11T13:26:15.264Z,33.88
2023-03-11T13:28:56.694Z,26.40
2023-03-11T13:31:38.882Z,24.75
2023-03-11T13:34:17.491Z,27.67
2023-03-11T13:37:06.942Z,35.78
2023-03-11T13:40:17.113Z,25.85
2023-03-11T13:42:51.383Z,26.77
2023-03-11T13:45:29.760Z,22.65
2023-03-11T13:48:39.199Z,25.83
2023-03-11T13:51:18.501Z,61.60
2023-03-11T13:54:39.685Z,28.35
2023-03-11T13:57:42.444Z,24.38
2023-03-11T14:00:17.924Z,28.50
2023-03-11T14:02:55.444Z,31.50
2023-03-11T14:05:36.734Z,22.65
2023-03-11T14:08:32.240Z,25.48
2023-03-11T14:11:12.469Z,27.80
2023-03-11T14:13:41.776Z,30.48
2023-03-11T14:16:19.241Z,26.80
2023-03-11T14:19:12.502Z,29.30
2023-03-11T14:21:44.195Z,35.13
2023-03-11T14:24:28.865Z,36.78
2023-03-11T14:26:59.453Z,36.20
2023-03-11T14:29:34.932Z,36.65
2023-03-11T14:32:36.099Z,38.88
2023-03-11T14:35:20.246Z,35.72
2023-03-11T14:37:50.265Z,29.30
2023-03-11T14:40:38.386Z,24.88
2023-03-11T14:43:07.623Z,27.45
2023-03-11T14:45:37.601Z,26.65
2023-03-11T14:48:08.629Z,32.40
2023-03-11T14:50:41.777Z,31.80
2023-03-11T14:53:16.175Z,33.10
2023-03-11T14:56:05.914Z,29.75
2023-03-11T14:58:41.842Z,23.13
2023-03-11T15:01:17.382Z,26.70
2023-03-11T15:03:56.707Z,26.23
2023-03-11T15:06:34.255Z,30.45
2023-03-11T15:09:52.041Z,20.38
2023-03-11T15:12:40.897Z,24.40
2023-03-11T15:17:55.105Z,22.40
2023-03-11T15:20:34.463Z,26.70
2023-03-11T15:23:16.961Z,26.77
2023-03-11T15:25:48.983Z,27.52
2023-03-11T15:28:25.324Z,24.52
2023-03-11T15:31:24.658Z,24.20
2023-03-11T15:33:54.902Z,30.30
2023-03-11T15:36:39.611Z,23.70
2023-03-11T15:39:31.182Z,26.27
2023-03-11T15:42:06.259Z,25.00
2023-03-11T15:44:37.773Z,26.00
2023-03-11T15:47:08.995Z,21.75
2023-03-11T15:49:37.943Z,25.15
2023-03-11T15:52:10.713Z,30.75
2023-03-11T15:54:39.713Z,25.30
2023-03-11T15:57:16.942Z,30.80
2023-03-11T15:59:47.030Z,29.60
2023-03-11T16:02:21.406Z,27.90
2023-03-11T16:04:49.809Z,23.88
2023-03-11T16:07:21.816Z,27.95
2023-03-11T16:09:57.628Z,26.80
2023-03-11T16:12:25.803Z,28.50
2023-03-11T16:14:54.943Z,25.98
2023-03-11T16:17:24.420Z,29.85
2023-03-11T16:19:57.299Z,42.20
2023-03-11T16:22:31.807Z,37.20
2023-03-11T16:25:02.640Z,30.85
2023-03-11T16:27:32.748Z,32.83
2023-03-11T16:30:04.079Z,34.78
2023-03-11T16:32:39.400Z,34.83
2023-03-11T16:35:07.933Z,35.95
2023-03-11T16:37:36.144Z,35.90
2023-03-11T16:40:07.322Z,38.13
2023-03-11T16:42:38.766Z,38.95
2023-03-11T16:45:34.071Z,36.95
2023-03-11T16:48:05.651Z,42.08
2023-03-11T16:50:37.523Z,41.42
2023-03-11T16:53:06.216Z,43.80
2023-03-11T16:55:36.550Z,41.90
2023-03-11T16:58:05.215Z,37.90
2023-03-11T17:00:34.057Z,41.42
2023-03-11T17:03:04.038Z,40.45
2023-03-11T17:05:37.002Z,41.45
2023-03-11T17:08:10.161Z,45.25
2023-03-11T17:10:43.683Z,45.30
2023-03-11T17:13:13.145Z,43.80
2023-03-11T17:15:54.333Z,49.15
2023-03-11T17:18:42.775Z,43.63
2023-03-11T17:21:25.592Z,39.75
2023-03-11T17:23:59.177Z,37.47
2023-03-11T17:26:33.340Z,42.60
2023-03-11T17:29:24.969Z,45.20
2023-03-11T17:32:12.181Z,44.50
2023-03-11T17:35:29.915Z,37.22
2023-03-11T17:38:02.248Z,43.00
2023-03-11T17:41:55.640Z,47.17
2023-03-11T17:46:04.456Z,35.10
2023-03-11T17:48:42.350Z,36.42
2023-03-11T17:51:18.410Z,36.40
2023-03-11T17:53:51.221Z,36.85
2023-03-11T17:56:30.730Z,37.28
2023-03-11T17:59:02.219Z,37.03
2023-03-11T18:02:10.226Z,36.80
2023-03-11T18:04:43.266Z,39.70
2023-03-11T18:07:12.198Z,38.50
2023-03-11T18:09:54.592Z,41.35
2023-03-11T18:12:30.867Z,37.33
2023-03-11T18:14:59.121Z,37.53
2023-03-11T18:17:29.169Z,38.25
2023-03-11T18:20:04.194Z,43.67
2023-03-11T18:23:17.215Z,53.33
2023-03-11T18:26:29.492Z,55.97
2023-03-11T18:29:20.884Z,46.88
2023-03-11T18:32:16.943Z,52.90
2023-03-11T18:35:21.145Z,47.83
2023-03-11T18:37:54.894Z,52.53
2023-03-11T18:40:24.164Z,52.17
2023-03-11T18:43:04.521Z,50.55
2023-03-11T18:45:41.510Z,49.80
2023-03-11T18:48:10.222Z,54.47
2023-03-11T18:50:42.122Z,51.95
2023-03-11T18:53:21.893Z,53.55
2023-03-11T19:18:57.625Z,55.88
2023-03-11T19:21:39.926Z,57.47
2023-03-11T19:24:20.093Z,49.67
2023-03-11T19:26:51.280Z,50.58
2023-03-11T19:29:20.660Z,47.70
2023-03-11T19:31:48.737Z,53.67
2023-03-11T19:34:18.605Z,47.30
2023-03-11T19:36:47.468Z,53.92
2023-03-11T19:39:26.498Z,49.33
2023-03-11T19:41:58.108Z,44.88
2023-03-11T19:44:29.503Z,43.35
2023-03-11T19:46:59.089Z,49.15
2023-03-11T19:49:29.810Z,43.28
2023-03-11T19:51:58.027Z,46.95
2023-03-11T19:57:13.649Z,36.22
2023-03-11T19:59:42.240Z,40.83
2023-03-11T20:02:16.674Z,42.03
2023-03-11T20:04:47.110Z,39.08
2023-03-11T20:07:16.111Z,43.95
2023-03-11T20:09:45.641Z,38.33
2023-03-11T20:12:29.009Z,40.33
2023-03-11T20:15:30.957Z,46.67
2023-03-11T20:18:09.631Z,31.02
2023-03-11T20:21:50.795Z,39.88
2023-03-11T20:24:34.561Z,41.22
2023-03-11T20:27:02.717Z,39.70
2023-03-11T20:29:41.483Z,37.72
2023-03-11T20:32:10.701Z,33.95
2023-03-11T20:34:42.625Z,40.72
2023-03-11T20:37:14.853Z,32.90
2023-03-11T20:39:52.888Z,36.10
2023-03-11T20:42:22.120Z,32.45
2023-03-11T20:45:00.142Z,36.60
2023-03-11T20:47:33.338Z,30.63
2023-03-11T20:50:25.146Z,35.13
2023-03-11T20:53:00.139Z,35.58
2023-03-11T20:55:28.510Z,42.05
2023-03-11T20:58:02.266Z,37.55
2023-03-11T21:01:47.986Z,29.08
2023-03-11T21:04:23.595Z,35.42
2023-03-11T21:06:57.679Z,39.03
2023-03-11T21:09:27.170Z,38.70
2023-03-11T21:11:55.541Z,34.58
2023-03-11T21:14:27.298Z,37.33
2023-03-11T21:16:57.553Z,42.38
2023-03-11T21:19:26.919Z,41.40
2023-03-11T21:22:02.958Z,39.42
2023-03-11T21:24:31.328Z,41.70
2023-03-11T21:27:00.228Z,38.08
2023-03-11T21:29:32.173Z,29.38
2023-03-11T21:32:00.165Z,32.50
2023-03-11T21:34:28.491Z,34.67
2023-03-11T21:37:04.417Z,34.90
2023-03-11T21:39:35.500Z,37.17
2023-03-11T21:42:03.992Z,37.92
2023-03-11T21:44:33.397Z,35.67
2023-03-11T21:47:02.230Z,41.72
2023-03-11T21:49:32.235Z,32.63
2023-03-11T21:52:02.508Z,32.60
2023-03-11T21:54:31.311Z,35.78
2023-03-11T21:56:59.670Z,30.02
2023-03-11T21:59:27.953Z,31.40
2023-03-11T22:02:01.421Z,30.85
2023-03-11T22:04:30.868Z,29.20
2023-03-11T22:06:59.532Z,27.73
2023-03-11T22:09:27.805Z,27.02
2023-03-11T22:11:58.158Z,32.83
2023-03-11T22:14:26.360Z,29.08
2023-03-11T22:16:57.551Z,29.42
2023-03-11T22:19:26.298Z,32.10
2023-03-11T22:21:54.538Z,29.73
2023-03-11T22:24:23.618Z,28.05
2023-03-11T22:26:52.954Z,26.35
2023-03-11T22:29:24.892Z,34.03
2023-03-11T22:31:58.198Z,40.53
2023-03-11T22:34:26.271Z,40.80
2023-03-11T22:36:56.753Z,50.08
2023-03-11T22:39:26.483Z,55.60
2023-03-11T22:41:54.540Z,59.30
2023-03-11T22:44:25.543Z,59.15
2023-03-11T22:46:53.600Z,64.45
2023-03-11T22:49:23.157Z,57.17
2023-03-11T22:51:55.246Z,60.33
2023-03-11T22:54:24.599Z,54.67
2023-03-11T22:56:55.831Z,51.78
2023-03-11T22:59:27.313Z,53.95
2023-03-11T23:02:00.457Z,55.58
2023-03-11T23:04:32.273Z,49.13
2023-03-11T23:07:04.173Z,52.15
2023-03-11T23:10:07.280Z,51.55
2023-03-11T23:12:53.287Z,59.10
2023-03-11T23:16:05.989Z,53.08
2023-03-11T23:19:51.000Z,49.65
2023-03-11T23:22:28.195Z,48.53
2023-03-11T23:24:57.416Z,47.38
2023-03-11T23:27:33.997Z,42.92
2023-03-11T23:30:02.173Z,42.72
2023-03-11T23:32:33.647Z,47.22
2023-03-11T23:35:02.297Z,47.70
2023-03-11T23:37:33.188Z,49.67
2023-03-11T23:40:02.278Z,44.03
2023-03-11T23:42:53.092Z,48.72
2023-03-11T23:45:24.592Z,55.28
2023-03-11T23:47:53.838Z,58.90
2023-03-11T23:50:22.302Z,49.63
2023-03-11T23:52:50.379Z,51.92
2023-03-11T23:55:19.154Z,44.33
2023-03-11T23:57:47.440Z,43.70
